sensor_id;sensor_type;location;lat;lon;timestamp;pressure;altitude;pressure_sealevel;temperature;humidity
21236;BME280;10775;42.678;26.324;2023-03-04T00:01:36;98786.88;;;5.23;100.00
21236;BME280;10775;42.678;26.324;2023-03-04T00:04:01;98792.94;;;5.22;100.00
21236;BME280;10775;42.678;26.324;2023-03-04T00:06:26;98795.56;;;5.39;100.00
21236;BME280;10775;42.678;26.324;2023-03-04T00:08:52;98795.56;;;5.40;100.00
21236;BME280;10775;42.678;26.324;2023-03-04T00:11:17;98796.47;;;5.47;100.00
21236;BME280;10775;42.678;26.324;2023-03-04T00:13:43;98797.31;;;5.57;100.00
21236;BME280;10775;42.678;26.324;2023-03-04T00:16:08;98780.03;;;5.59;100.00
21236;BME280;10775;42.678;26.324;2023-03-04T00:18:34;98782.63;;;5.53;100.00
21236;BME280;10775;42.678;26.324;2023-03-04T00:20:59;98786.09;;;5.50;100.00
21236;BME280;10775;42.678;26.324;2023-03-04T00:23:25;98781.78;;;5.52;100.00
21236;BME280;10775;42.678;26.324;2023-03-04T00:25:50;98780.06;;;5.56;100.00
21236;BME280;10775;42.678;26.324;2023-03-04T00:28:16;98767.94;;;5.52;100.00
21236;BME280;10775;42.678;26.324;2023-03-04T00:30:41;98768.78;;;5.49;100.00
21236;BME280;10775;42.678;26.324;2023-03-04T00:33:06;98771.38;;;5.38;100.00
21236;BME280;10775;42.678;26.324;2023-03-04T00:35:32;98768.75;;;5.28;100.00
21236;BME280;10775;42.678;26.324;2023-03-04T00:37:57;98772.22;;;5.33;100.00
21236;BME280;10775;42.678;26.324;2023-03-04T00:40:23;98764.41;;;5.31;100.00
21236;BME280;10775;42.678;26.324;2023-03-04T00:42:48;98758.41;;;5.35;100.00
21236;BME280;10775;42.678;26.324;2023-03-04T00:45:14;98760.97;;;5.26;100.00
21236;BME280;10775;42.678;26.324;2023-03-04T00:47:39;98754.06;;;5.25;100.00
21236;BME280;10775;42.678;26.324;2023-03-04T00:50:05;98751.47;;;5.30;100.00
21236;BME280;10775;42.678;26.324;2023-03-04T00:52:31;98754.94;;;5.33;100.00
21236;BME280;10775;42.678;26.324;2023-03-04T00:54:57;98761.81;;;5.23;100.00
21236;BME280;10775;42.678;26.324;2023-03-04T00:57:22;98754.00;;;5.11;100.00
21236;BME280;10775;42.678;26.324;2023-03-04T00:59:48;98755.72;;;5.08;100.00
21236;BME280;10775;42.678;26.324;2023-03-04T01:02:13;98751.41;;;5.08;100.00
21236;BME280;10775;42.678;26.324;2023-03-04T01:04:39;98746.22;;;5.05;100.00
21236;BME280;10775;42.678;26.324;2023-03-04T01:07:06;98746.16;;;4.96;100.00
21236;BME280;10775;42.678;26.324;2023-03-04T01:09:31;98746.19;;;4.99;100.00
21236;BME280;10775;42.678;26.324;2023-03-04T01:11:57;98748.78;;;4.97;100.00
21236;BME280;10775;42.678;26.324;2023-03-04T01:14:23;98741.00;;;4.96;100.00
21236;BME280;10775;42.678;26.324;2023-03-04T01:16:48;98745.34;;;5.03;100.00
21236;BME280;10775;42.678;26.324;2023-03-04T01:19:14;98745.34;;;5.08;100.00
21236;BME280;10775;42.678;26.324;2023-03-04T01:21:40;98746.25;;;5.14;100.00
21236;BME280;10775;42.678;26.324;2023-03-04T01:24:05;98748.84;;;5.17;100.00
21236;BME280;10775;42.678;26.324;2023-03-04T01:26:31;98741.06;;;5.19;100.00
21236;BME280;10775;42.678;26.324;2023-03-04T01:28:56;98743.66;;;5.17;100.00
21236;BME280;10775;42.678;26.324;2023-03-04T01:31:22;98743.66;;;5.14;100.00
21236;BME280;10775;42.678;26.324;2023-03-04T01:33:47;98743.59;;;5.00;100.00
21236;BME280;10775;42.678;26.324;2023-03-04T01:36:13;98739.25;;;4.89;100.00
21236;BME280;10775;42.678;26.324;2023-03-04T01:38:38;98746.16;;;4.93;100.00
21236;BME280;10775;42.678;26.324;2023-03-04T01:41:04;98746.22;;;5.02;100.00
21236;BME280;10775;42.678;26.324;2023-03-04T01:43:33;98751.41;;;5.08;100.00
21236;BME280;10775;42.678;26.324;2023-03-04T01:45:59;98750.56;;;5.12;100.00
21236;BME280;10775;42.678;26.324;2023-03-04T01:48:31;98754.88;;;5.10;100.00
21236;BME280;10775;42.678;26.324;2023-03-04T01:50:59;98770.44;;;5.16;100.00
21236;BME280;10775;42.678;26.324;2023-03-04T01:53:27;98765.22;;;5.10;100.00
21236;BME280;10775;42.678;26.324;2023-03-04T01:55:56;98772.97;;;4.98;100.00
21236;BME280;10775;42.678;26.324;2023-03-04T01:58:29;98773.84;;;5.01;100.00
21236;BME280;10775;42.678;26.324;2023-03-04T02:00:55;98767.81;;;5.13;100.00
21236;BME280;10775;42.678;26.324;2023-03-04T02:03:21;98766.13;;;5.12;100.00
21236;BME280;10775;42.678;26.324;2023-03-04T02:05:48;98773.00;;;5.13;100.00
21236;BME280;10775;42.678;26.324;2023-03-04T02:08:17;98767.00;;;5.17;100.00
21236;BME280;10775;42.678;26.324;2023-03-04T02:10:43;98767.88;;;5.27;100.00
21236;BME280;10775;42.678;26.324;2023-03-04T02:13:10;98767.91;;;5.32;100.00
21236;BME280;10775;42.678;26.324;2023-03-04T02:15:36;98766.13;;;5.23;100.00
21236;BME280;10775;42.678;26.324;2023-03-04T02:18:09;98766.16;;;5.25;100.00
21236;BME280;10775;42.678;26.324;2023-03-04T02:23:37;98749.78;;;5.39;100.00
21236;BME280;10775;42.678;26.324;2023-03-04T02:26:25;98751.50;;;5.45;100.00
21236;BME280;10775;42.678;26.324;2023-03-04T02:28:52;98748.06;;;5.48;100.00
21236;BME280;10775;42.678;26.324;2023-03-04T02:33:58;98753.22;;;5.46;100.00
21236;BME280;10775;42.678;26.324;2023-03-04T02:36:24;98755.84;;;5.44;100.00
21236;BME280;10775;42.678;26.324;2023-03-04T02:38:51;98755.81;;;5.43;100.00
21236;BME280;10775;42.678;26.324;2023-03-04T02:41:20;98756.69;;;5.47;100.00
21236;BME280;10775;42.678;26.324;2023-03-04T02:43:49;98776.56;;;5.46;100.00
21236;BME280;10775;42.678;26.324;2023-03-04T02:46:16;98773.94;;;5.38;100.00
21236;BME280;10775;42.678;26.324;2023-03-04T02:48:42;98780.03;;;5.42;100.00
21236;BME280;10775;42.678;26.324;2023-03-04T02:51:07;98780.88;;;5.35;100.00
21236;BME280;10775;42.678;26.324;2023-03-04T02:53:33;98779.13;;;5.28;100.00
21236;BME280;10775;42.678;26.324;2023-03-04T02:55:58;98785.16;;;5.25;100.00
21236;BME280;10775;42.678;26.324;2023-03-04T02:58:24;98784.31;;;5.31;100.00
21236;BME280;10775;42.678;26.324;2023-03-04T03:00:49;98787.75;;;5.23;100.00
21236;BME280;10775;42.678;26.324;2023-03-04T03:03:15;98786.03;;;5.24;100.00
21236;BME280;10775;42.678;26.324;2023-03-04T03:05:40;98790.31;;;5.23;100.00
21236;BME280;10775;42.678;26.324;2023-03-04T03:08:06;98792.91;;;5.19;100.00
21236;BME280;10775;42.678;26.324;2023-03-04T03:10:32;98780.81;;;5.15;100.00
21236;BME280;10775;42.678;26.324;2023-03-04T03:12:58;98779.94;;;5.13;100.00
21236;BME280;10775;42.678;26.324;2023-03-04T03:15:23;98775.59;;;5.16;100.00
21236;BME280;10775;42.678;26.324;2023-03-04T03:17:49;98782.56;;;5.22;100.00
21236;BME280;10775;42.678;26.324;2023-03-04T03:20:15;98777.41;;;5.30;100.00
21236;BME280;10775;42.678;26.324;2023-03-04T03:22:41;98780.00;;;5.37;100.00
21236;BME280;10775;42.678;26.324;2023-03-04T03:25:08;98770.50;;;5.38;100.00
21236;BME280;10775;42.678;26.324;2023-03-04T03:27:34;98774.81;;;5.39;100.00
21236;BME280;10775;42.678;26.324;2023-03-04T03:29:59;98775.69;;;5.35;100.00
21236;BME280;10775;42.678;26.324;2023-03-04T03:32:25;98764.41;;;5.31;100.00
21236;BME280;10775;42.678;26.324;2023-03-04T03:34:50;98759.25;;;5.33;100.00
21236;BME280;10775;42.678;26.324;2023-03-04T03:37:16;98758.38;;;5.31;100.00
21236;BME280;10775;42.678;26.324;2023-03-04T03:39:42;98764.38;;;5.19;100.00
21236;BME280;10775;42.678;26.324;2023-03-04T03:42:07;98758.34;;;5.21;100.00
21236;BME280;10775;42.678;26.324;2023-03-04T03:44:32;98767.03;;;5.31;100.00
21236;BME280;10775;42.678;26.324;2023-03-04T03:46:58;98763.59;;;5.40;100.00
21236;BME280;10775;42.678;26.324;2023-03-04T03:49:23;98766.19;;;5.49;100.00
21236;BME280;10775;42.678;26.324;2023-03-04T03:51:49;98758.44;;;5.48;100.00
21236;BME280;10775;42.678;26.324;2023-03-04T03:54:14;98768.81;;;5.51;100.00
21236;BME280;10775;42.678;26.324;2023-03-04T03:56:40;98767.94;;;5.45;100.00
21236;BME280;10775;42.678;26.324;2023-03-04T03:59:05;98772.22;;;5.34;100.00
21236;BME280;10775;42.678;26.324;2023-03-04T04:01:31;98772.19;;;5.22;100.00
21236;BME280;10775;42.678;26.324;2023-03-04T04:03:58;98782.53;;;5.19;100.00
21236;BME280;10775;42.678;26.324;2023-03-04T04:06:24;98783.38;;;5.16;100.00
21236;BME280;10775;42.678;26.324;2023-03-04T04:08:49;98788.59;;;5.19;100.00
21236;BME280;10775;42.678;26.324;2023-03-04T04:11:15;98791.22;;;5.29;100.00
21236;BME280;10775;42.678;26.324;2023-03-04T04:13:40;98796.44;;;5.38;100.00
21236;BME280;10775;42.678;26.324;2023-03-04T04:16:06;98791.25;;;5.41;100.00
21236;BME280;10775;42.678;26.324;2023-03-04T04:18:33;98792.13;;;5.46;100.00
21236;BME280;10775;42.678;26.324;2023-03-04T04:20:58;98786.97;;;5.48;100.00
21236;BME280;10775;42.678;26.324;2023-03-04T04:23:24;98796.44;;;5.49;100.00
21236;BME280;10775;42.678;26.324;2023-03-04T04:25:49;98786.94;;;5.49;100.00
21236;BME280;10775;42.678;26.324;2023-03-04T04:28:14;98791.28;;;5.50;100.00
21236;BME280;10775;42.678;26.324;2023-03-04T04:30:40;98793.88;;;5.50;100.00
21236;BME280;10775;42.678;26.324;2023-03-04T04:33:05;98788.69;;;5.50;100.00
21236;BME280;10775;42.678;26.324;2023-03-04T04:35:32;98780.06;;;5.53;100.00
21236;BME280;10775;42.678;26.324;2023-03-04T04:37:59;98777.44;;;5.51;100.00
21236;BME280;10775;42.678;26.324;2023-03-04T04:40:24;98780.06;;;5.56;100.00
21236;BME280;10775;42.678;26.324;2023-03-04T04:42:50;98777.44;;;5.42;100.00
21236;BME280;10775;42.678;26.324;2023-03-04T04:45:15;98788.63;;;5.36;100.00
21236;BME280;10775;42.678;26.324;2023-03-04T04:47:41;98784.31;;;5.34;100.00
21236;BME280;10775;42.678;26.324;2023-03-04T04:50:07;98785.22;;;5.42;100.00
21236;BME280;10775;42.678;26.324;2023-03-04T04:52:32;98780.88;;;5.45;100.00
21236;BME280;10775;42.678;26.324;2023-03-04T04:54:58;98785.22;;;5.51;100.00
21236;BME280;10775;42.678;26.324;2023-03-04T04:57:23;98791.28;;;5.56;100.00
21236;BME280;10775;42.678;26.324;2023-03-04T04:59:49;98787.81;;;5.59;100.00
21236;BME280;10775;42.678;26.324;2023-03-04T05:02:14;98790.44;;;5.63;100.00
21236;BME280;10775;42.678;26.324;2023-03-04T05:04:40;98793.91;;;5.65;100.00
21236;BME280;10775;42.678;26.324;2023-03-04T05:07:05;98796.47;;;5.67;100.00
21236;BME280;10775;42.678;26.324;2023-03-04T05:09:31;98796.50;;;5.62;100.00
21236;BME280;10775;42.678;26.324;2023-03-04T05:11:56;98798.22;;;5.57;100.00
21236;BME280;10775;42.678;26.324;2023-03-04T05:14:22;98800.78;;;5.51;100.00
21236;BME280;10775;42.678;26.324;2023-03-04T05:16:47;98803.38;;;5.48;100.00
21236;BME280;10775;42.678;26.324;2023-03-04T05:19:13;98807.69;;;5.37;100.00
21236;BME280;10775;42.678;26.324;2023-03-04T05:21:38;98798.97;;;5.29;100.00
21236;BME280;10775;42.678;26.324;2023-03-04T05:24:04;98799.88;;;5.34;100.00
21236;BME280;10775;42.678;26.324;2023-03-04T05:26:29;98793.00;;;5.45;100.00
21236;BME280;10775;42.678;26.324;2023-03-04T05:28:55;98795.59;;;5.54;100.00
21236;BME280;10775;42.678;26.324;2023-03-04T05:31:20;98790.41;;;5.53;100.00
21236;BME280;10775;42.678;26.324;2023-03-04T05:33:46;98793.00;;;5.54;100.00
21236;BME280;10775;42.678;26.324;2023-03-04T05:36:11;98800.72;;;5.31;100.00
21236;BME280;10775;42.678;26.324;2023-03-04T05:38:37;98803.34;;;5.36;100.00
21236;BME280;10775;42.678;26.324;2023-03-04T05:41:05;98799.91;;;5.49;100.00
21236;BME280;10775;42.678;26.324;2023-03-04T05:43:31;98788.69;;;5.61;100.00
21236;BME280;10775;42.678;26.324;2023-03-04T05:46:00;98785.25;;;5.71;100.00
21236;BME280;10775;42.678;26.324;2023-03-04T05:48:26;98779.19;;;5.72;100.00
21236;BME280;10775;42.678;26.324;2023-03-04T05:50:57;98781.81;;;5.68;100.00
21236;BME280;10775;42.678;26.324;2023-03-04T05:53:23;98784.38;;;5.69;100.00
21236;BME280;10775;42.678;26.324;2023-03-04T05:55:49;98782.69;;;5.80;100.00
21236;BME280;10775;42.678;26.324;2023-03-04T05:58:16;98779.22;;;5.83;100.00
21236;BME280;10775;42.678;26.324;2023-03-04T06:00:41;98775.75;;;5.81;100.00
21236;BME280;10775;42.678;26.324;2023-03-04T06:03:13;98783.56;;;5.98;100.00
21236;BME280;10775;42.678;26.324;2023-03-04T06:05:39;98779.25;;;6.10;100.00
21236;BME280;10775;42.678;26.324;2023-03-04T06:08:05;98781.84;;;6.21;100.00
21236;BME280;10775;42.678;26.324;2023-03-04T06:10:30;98780.13;;;6.26;100.00
21236;BME280;10775;42.678;26.324;2023-03-04T06:12:57;98777.50;;;6.16;100.00
21236;BME280;10775;42.678;26.324;2023-03-04T06:15:22;98783.56;;;6.21;100.00
21236;BME280;10775;42.678;26.324;2023-03-04T06:17:47;98780.97;;;6.31;100.00
21236;BME280;10775;42.678;26.324;2023-03-04T06:20:13;98783.53;;;6.45;100.00
21236;BME280;10775;42.678;26.324;2023-03-04T06:22:38;98791.31;;;6.55;100.00
21236;BME280;10775;42.678;26.324;2023-03-04T06:25:04;98795.66;;;6.57;100.00
21236;BME280;10775;42.678;26.324;2023-03-04T06:27:30;98794.78;;;6.50;100.00
21236;BME280;10775;42.678;26.324;2023-03-04T06:29:55;98788.72;;;6.48;100.00
21236;BME280;10775;42.678;26.324;2023-03-04T06:32:21;98791.34;;;6.45;100.00
21236;BME280;10775;42.678;26.324;2023-03-04T06:34:46;98798.19;;;6.74;100.00
21236;BME280;10775;42.678;26.324;2023-03-04T06:37:12;98803.34;;;6.95;100.00
21236;BME280;10775;42.678;26.324;2023-03-04T06:39:37;98809.38;;;7.04;100.00
21236;BME280;10775;42.678;26.324;2023-03-04T06:42:03;98814.56;;;7.08;100.00
21236;BME280;10775;42.678;26.324;2023-03-04T06:44:28;98816.25;;;7.12;99.83
21236;BME280;10775;42.678;26.324;2023-03-04T06:46:54;98817.16;;;7.04;100.00
21236;BME280;10775;42.678;26.324;2023-03-04T06:49:19;98816.34;;;6.91;100.00
21236;BME280;10775;42.678;26.324;2023-03-04T06:51:44;98819.00;;;6.71;100.00
21236;BME280;10775;42.678;26.324;2023-03-04T06:54:10;98819.03;;;6.57;100.00
21236;BME280;10775;42.678;26.324;2023-03-04T06:56:35;98823.34;;;6.55;100.00
21236;BME280;10775;42.678;26.324;2023-03-04T06:59:01;98817.28;;;6.64;100.00
21236;BME280;10775;42.678;26.324;2023-03-04T07:01:27;98817.22;;;6.82;100.00
21236;BME280;10775;42.678;26.324;2023-03-04T07:03:54;98811.13;;;6.95;100.00
21236;BME280;10775;42.678;26.324;2023-03-04T07:06:23;98818.03;;;7.01;100.00
21236;BME280;10775;42.678;26.324;2023-03-04T07:08:49;98821.47;;;7.14;100.00
21236;BME280;10775;42.678;26.324;2023-03-04T07:11:16;98822.25;;;7.33;100.00
21236;BME280;10775;42.678;26.324;2023-03-04T07:13:41;98824.91;;;7.22;100.00
21236;BME280;10775;42.678;26.324;2023-03-04T07:16:12;98829.25;;;7.17;100.00
21236;BME280;10775;42.678;26.324;2023-03-04T07:18:38;98830.06;;;7.25;100.00
21236;BME280;10775;42.678;26.324;2023-03-04T07:21:04;98823.84;;;7.54;100.00
21236;BME280;10775;42.678;26.324;2023-03-04T07:23:30;98829.13;;;7.43;100.00
21236;BME280;10775;42.678;26.324;2023-03-04T07:25:56;98826.59;;;7.29;100.00
21236;BME280;10775;42.678;26.324;2023-03-04T07:28:21;98824.91;;;7.22;100.00
21236;BME280;10775;42.678;26.324;2023-03-04T07:30:47;98828.34;;;7.29;100.00
21236;BME280;10775;42.678;26.324;2023-03-04T07:33:13;98829.22;;;7.26;100.00
21236;BME280;10775;42.678;26.324;2023-03-04T07:35:39;98823.09;;;7.39;99.17
21236;BME280;10775;42.678;26.324;2023-03-04T07:38:05;98824.03;;;7.22;100.00
21236;BME280;10775;42.678;26.324;2023-03-04T07:40:30;98818.78;;;7.31;100.00
21236;BME280;10775;42.678;26.324;2023-03-04T07:42:56;98821.31;;;7.43;100.00
21236;BME280;10775;42.678;26.324;2023-03-04T07:45:23;98826.53;;;7.40;100.00
21236;BME280;10775;42.678;26.324;2023-03-04T07:47:49;98823.06;;;7.47;100.00
21236;BME280;10775;42.678;26.324;2023-03-04T07:50:15;98825.59;;;7.53;100.00
21236;BME280;10775;42.678;26.324;2023-03-04T07:52:42;98812.44;;;7.79;100.00
21236;BME280;10775;42.678;26.324;2023-03-04T07:55:10;98812.34;;;7.92;100.00
21236;BME280;10775;42.678;26.324;2023-03-04T07:57:40;98816.63;;;8.03;96.82
21236;BME280;10775;42.678;26.324;2023-03-04T08:00:06;98810.47;;;8.14;96.82
21236;BME280;10775;42.678;26.324;2023-03-04T08:02:32;98806.84;;;8.30;94.74
21236;BME280;10775;42.678;26.324;2023-03-04T08:04:57;98816.25;;;8.48;93.32
21236;BME280;10775;42.678;26.324;2023-03-04T08:07:23;98817.88;;;8.61;92.00
21236;BME280;10775;42.678;26.324;2023-03-04T08:09:48;98810.78;;;8.76;91.27
21236;BME280;10775;42.678;26.324;2023-03-04T08:12:14;98804.16;;;8.38;99.71
21236;BME280;10775;42.678;26.324;2023-03-04T08:14:40;98805.91;;;8.37;95.18
21236;BME280;10775;42.678;26.324;2023-03-04T08:17:05;98802.06;;;8.78;94.35
21236;BME280;10775;42.678;26.324;2023-03-04T08:19:31;98800.59;;;8.54;99.79
21236;BME280;10775;42.678;26.324;2023-03-04T08:21:56;98793.66;;;8.50;94.57
21236;BME280;10775;42.678;26.324;2023-03-04T08:24:21;98803.16;;;8.57;93.97
21236;BME280;10775;42.678;26.324;2023-03-04T08:26:48;98809.06;;;8.71;92.92
21236;BME280;10775;42.678;26.324;2023-03-04T08:29:19;98803.69;;;8.87;92.13
21236;BME280;10775;42.678;26.324;2023-03-04T08:31:50;98802.06;;;8.77;97.41
21236;BME280;10775;42.678;26.324;2023-03-04T08:34:18;98795.06;;;8.85;90.80
21236;BME280;10775;42.678;26.324;2023-03-04T08:36:44;98798.19;;;9.13;90.38
21236;BME280;10775;42.678;26.324;2023-03-04T08:39:14;98790.09;;;9.33;89.72
21236;BME280;10775;42.678;26.324;2023-03-04T08:41:40;98795.25;;;9.38;88.00
21236;BME280;10775;42.678;26.324;2023-03-04T08:44:06;98783.81;;;9.49;89.59
21236;BME280;10775;42.678;26.324;2023-03-04T08:46:34;98788.91;;;9.57;86.91
21236;BME280;10775;42.678;26.324;2023-03-04T08:49:00;98791.63;;;9.49;89.33
21236;BME280;10775;42.678;26.324;2023-03-04T08:51:25;98777.72;;;9.49;85.92
21236;BME280;10775;42.678;26.324;2023-03-04T08:53:51;98783.69;;;9.57;85.00
21236;BME280;10775;42.678;26.324;2023-03-04T08:56:16;98781.94;;;9.57;85.80
21236;BME280;10775;42.678;26.324;2023-03-04T08:58:42;98782.00;;;9.53;89.61
21236;BME280;10775;42.678;26.324;2023-03-04T09:01:09;98778.66;;;9.43;92.81
21236;BME280;10775;42.678;26.324;2023-03-04T09:03:36;98774.72;;;9.10;96.89
21236;BME280;10775;42.678;26.324;2023-03-04T09:06:02;98774.38;;;9.38;94.67
21236;BME280;10775;42.678;26.324;2023-03-04T09:08:28;98781.16;;;9.52;95.08
21236;BME280;10775;42.678;26.324;2023-03-04T09:10:54;98771.44;;;9.61;92.29
21236;BME280;10775;42.678;26.324;2023-03-04T09:13:21;98774.09;;;9.57;92.17
21236;BME280;10775;42.678;26.324;2023-03-04T09:15:48;98777.50;;;9.64;95.76
21236;BME280;10775;42.678;26.324;2023-03-04T09:18:16;98769.94;;;9.44;93.44
21236;BME280;10775;42.678;26.324;2023-03-04T09:20:42;98769.00;;;9.48;98.37
21236;BME280;10775;42.678;26.324;2023-03-04T09:23:07;98765.69;;;9.97;98.33
21236;BME280;10775;42.678;26.324;2023-03-04T09:25:34;98762.03;;;10.08;98.42
21236;BME280;10775;42.678;26.324;2023-03-04T09:28:00;98762.38;;;10.39;93.91
21236;BME280;10775;42.678;26.324;2023-03-04T09:30:25;98769.81;;;10.60;92.23
21236;BME280;10775;42.678;26.324;2023-03-04T09:32:50;98759.09;;;10.28;94.83
21236;BME280;10775;42.678;26.324;2023-03-04T09:35:16;98755.25;;;10.47;94.96
21236;BME280;10775;42.678;26.324;2023-03-04T09:37:41;98759.06;;;10.77;89.39
21236;BME280;10775;42.678;26.324;2023-03-04T09:40:10;98752.75;;;10.87;87.58
21236;BME280;10775;42.678;26.324;2023-03-04T09:42:46;98748.00;;;10.63;90.74
21236;BME280;10775;42.678;26.324;2023-03-04T09:45:17;98743.38;;;10.77;91.19
21236;BME280;10775;42.678;26.324;2023-03-04T09:47:45;98740.81;;;10.74;92.00
21236;BME280;10775;42.678;26.324;2023-03-04T09:50:12;98746.34;;;10.59;93.62
21236;BME280;10775;42.678;26.324;2023-03-04T09:58:04;98732.16;;;11.92;85.29
21236;BME280;10775;42.678;26.324;2023-03-04T10:00:38;98730.31;;;12.30;86.81
21236;BME280;10775;42.678;26.324;2023-03-04T10:06:03;98721.50;;;11.22;86.02
21236;BME280;10775;42.678;26.324;2023-03-04T10:11:26;98730.59;;;11.04;88.51
21236;BME280;10775;42.678;26.324;2023-03-04T10:14:03;98712.28;;;11.44;86.90
21236;BME280;10775;42.678;26.324;2023-03-04T10:19:29;98708.72;;;11.47;83.41
21236;BME280;10775;42.678;26.324;2023-03-04T10:21:58;98695.47;;;11.54;81.23
21236;BME280;10775;42.678;26.324;2023-03-04T10:24:28;98693.50;;;11.63;82.41
21236;BME280;10775;42.678;26.324;2023-03-04T10:26:59;98698.25;;;11.47;81.53
21236;BME280;10775;42.678;26.324;2023-03-04T10:29:28;98695.16;;;11.29;85.51
21236;BME280;10775;42.678;26.324;2023-03-04T10:31:54;98700.34;;;11.32;83.19
21236;BME280;10775;42.678;26.324;2023-03-04T10:34:21;98696.63;;;11.43;82.36
21236;BME280;10775;42.678;26.324;2023-03-04T10:42:00;98671.41;;;11.39;82.91
21236;BME280;10775;42.678;26.324;2023-03-04T10:44:27;98675.69;;;11.43;79.42
21236;BME280;10775;42.678;26.324;2023-03-04T10:46:55;98670.38;;;11.46;80.09
21236;BME280;10775;42.678;26.324;2023-03-04T10:49:22;98660.28;;;11.29;81.54
21236;BME280;10775;42.678;26.324;2023-03-04T10:51:52;98664.75;;;11.25;86.54
21236;BME280;10775;42.678;26.324;2023-03-04T10:54:24;98661.56;;;11.11;84.61
21236;BME280;10775;42.678;26.324;2023-03-04T10:57:34;98659.69;;;11.16;83.10
21236;BME280;10775;42.678;26.324;2023-03-04T10:59:59;98652.31;;;11.35;83.09
21236;BME280;10775;42.678;26.324;2023-03-04T11:02:32;98646.16;;;11.38;81.87
21236;BME280;10775;42.678;26.324;2023-03-04T11:07:45;98641.09;;;11.66;80.02
21236;BME280;10775;42.678;26.324;2023-03-04T11:12:37;98630.09;;;11.87;84.45
21236;BME280;10775;42.678;26.324;2023-03-04T11:15:21;98623.56;;;11.68;84.68
21236;BME280;10775;42.678;26.324;2023-03-04T11:18:14;98626.81;;;11.43;80.83
21236;BME280;10775;42.678;26.324;2023-03-04T11:20:42;98621.59;;;11.42;85.07
21236;BME280;10775;42.678;26.324;2023-03-04T11:23:18;98619.50;;;11.56;87.07
21236;BME280;10775;42.678;26.324;2023-03-04T11:25:51;98615.75;;;11.66;87.37
21236;BME280;10775;42.678;26.324;2023-03-04T11:28:51;98617.91;;;11.50;84.39
21236;BME280;10775;42.678;26.324;2023-03-04T11:31:27;98603.09;;;11.49;81.11
21236;BME280;10775;42.678;26.324;2023-03-04T11:37:04;98609.63;;;11.31;81.47
21236;BME280;10775;42.678;26.324;2023-03-04T11:45:00;98601.31;;;10.77;87.26
21236;BME280;10775;42.678;26.324;2023-03-04T12:05:54;98586.53;;;11.13;84.36
21236;BME280;10775;42.678;26.324;2023-03-04T12:11:29;98577.84;;;11.47;87.04
21236;BME280;10775;42.678;26.324;2023-03-04T12:30:43;98553.81;;;11.98;88.64
21236;BME280;10775;42.678;26.324;2023-03-04T12:35:56;98548.44;;;12.64;85.33
21236;BME280;10775;42.678;26.324;2023-03-04T12:41:21;98546.84;;;12.30;83.00
21236;BME280;10775;42.678;26.324;2023-03-04T12:47:01;98539.81;;;12.30;85.20
21236;BME280;10775;42.678;26.324;2023-03-04T12:52:20;98539.59;;;12.38;82.04
21236;BME280;10775;42.678;26.324;2023-03-04T12:54:54;98541.81;;;12.22;83.21
21236;BME280;10775;42.678;26.324;2023-03-04T12:57:24;98531.69;;;11.75;84.86
21236;BME280;10775;42.678;26.324;2023-03-04T13:07:54;98523.44;;;11.92;82.74
21236;BME280;10775;42.678;26.324;2023-03-04T13:10:23;98527.06;;;11.85;83.42
21236;BME280;10775;42.678;26.324;2023-03-04T13:12:59;98513.91;;;11.88;84.34
21236;BME280;10775;42.678;26.324;2023-03-04T13:17:52;98517.66;;;11.78;83.90
21236;BME280;10775;42.678;26.324;2023-03-04T13:20:22;98515.97;;;11.75;81.68
21236;BME280;10775;42.678;26.324;2023-03-04T13:41:20;98491.88;;;11.64;88.71
21236;BME280;10775;42.678;26.324;2023-03-04T13:53:53;98471.81;;;11.30;86.96
21236;BME280;10775;42.678;26.324;2023-03-04T13:58:51;98465.53;;;11.38;84.35
21236;BME280;10775;42.678;26.324;2023-03-04T14:01:31;98460.41;;;11.33;84.01
21236;BME280;10775;42.678;26.324;2023-03-04T14:03:58;98455.19;;;11.33;87.29
21236;BME280;10775;42.678;26.324;2023-03-04T14:06:27;98462.22;;;11.31;84.94
21236;BME280;10775;42.678;26.324;2023-03-04T14:08:54;98462.31;;;11.26;84.20
21236;BME280;10775;42.678;26.324;2023-03-04T14:11:34;98454.72;;;11.17;86.74
21236;BME280;10775;42.678;26.324;2023-03-04T14:14:05;98453.00;;;11.16;83.76
21236;BME280;10775;42.678;26.324;2023-03-04T14:16:34;98458.41;;;11.10;83.23
21236;BME280;10775;42.678;26.324;2023-03-04T14:19:04;98455.81;;;11.08;86.33
21236;BME280;10775;42.678;26.324;2023-03-04T14:21:31;98452.25;;;11.11;86.93
21236;BME280;10775;42.678;26.324;2023-03-04T14:24:17;98446.78;;;11.20;85.51
21236;BME280;10775;42.678;26.324;2023-03-04T14:26:43;98450.38;;;11.16;85.76
21236;BME280;10775;42.678;26.324;2023-03-04T14:29:28;98452.97;;;11.18;86.33
21236;BME280;10775;42.678;26.324;2023-03-04T14:31:55;98439.34;;;11.05;90.50
21236;BME280;10775;42.678;26.324;2023-03-04T14:36:50;98439.81;;;11.21;83.49
21236;BME280;10775;42.678;26.324;2023-03-04T14:39:17;98431.94;;;11.22;86.39
21236;BME280;10775;42.678;26.324;2023-03-04T14:41:45;98436.44;;;11.16;84.90
21236;BME280;10775;42.678;26.324;2023-03-04T14:44:31;98430.59;;;11.06;83.12
21236;BME280;10775;42.678;26.324;2023-03-04T14:49:47;98427.59;;;10.87;84.19
21236;BME280;10775;42.678;26.324;2023-03-04T14:52:49;98433.47;;;10.61;90.89
21236;BME280;10775;42.678;26.324;2023-03-04T14:57:43;98424.94;;;10.53;90.99
21236;BME280;10775;42.678;26.324;2023-03-04T15:02:47;98422.59;;;10.40;84.78
21236;BME280;10775;42.678;26.324;2023-03-04T15:05:24;98412.31;;;10.33;88.20
21236;BME280;10775;42.678;26.324;2023-03-04T15:08:00;98414.13;;;10.31;87.94
21236;BME280;10775;42.678;26.324;2023-03-04T15:10:32;98407.91;;;10.36;88.12
21236;BME280;10775;42.678;26.324;2023-03-04T15:13:00;98409.75;;;10.31;88.99